This is the latest recevied weather packets stored in our database for station/object DH9SB-6. If no packets are shown the sender has not sent any weather packets the latest 10 day(s).
| Time | Temp. | Humidity | Pressure | Rain* | Wind** | Luminosity | Snow |
|---|---|---|---|---|---|---|---|
| 1787815355 | 25.56° C | 58% | - | 0 mm | - | - | - |
| 1787814780 | 25.56° C | 60% | - | 0 mm | - | - | - |
| 1787814156 | 25° C | 61% | - | 0 mm | - | - | - |
| 1787813581 | 23.89° C | 65% | - | 0 mm | - | - | - |
| 1787812955 | 22.22° C | 70% | - | 0 mm | - | - | - |
| 1787812385 | 21.67° C | 73% | - | 0 mm | - | - | - |
| 1787811756 | 20.56° C | 75% | - | 0 mm | - | - | - |
| 1787811182 | 20° C | 76% | - | 0 mm | - | - | - |
| 1787810556 | 19.44° C | 78% | - | 0 mm | - | - | - |
| 1787809979 | 18.89° C | 79% | - | 0 mm | - | - | - |
| 1787809358 | 18.89° C | 79% | - | 0 mm | - | - | - |
| 1787808780 | 18.33° C | 80% | - | 0 mm | - | - | - |
| 1787808156 | 18.33° C | 80% | - | 0 mm | - | - | - |
| 1787807580 | 18.33° C | 80% | - | 0 mm | - | - | - |
| 1787806958 | 18.33° C | 81% | - | 0 mm | - | - | - |
| 1787806428 | 18.33° C | 81% | - | 0 mm | - | - | - |
| 1787805759 | 17.78° C | 81% | - | 0 mm | - | - | - |
| 1787805179 | 17.78° C | 81% | - | 0 mm | - | - | - |
| 1787804556 | 17.78° C | 81% | - | 0 mm | - | - | - |
| 1787803980 | 17.78° C | 81% | - | 0 mm | - | - | - |
| 1787803356 | 17.78° C | 81% | - | 0 mm | - | - | - |
| 1787803117 | 17.78° C | 81% | - | 0 mm | - | - | - |
| 1787802156 | 17.78° C | 81% | - | 0 mm | - | - | - |
| 1787801579 | 18.33° C | 81% | - | 0 mm | - | - | - |
| 1787800956 | 18.33° C | 81% | - | 0 mm | - | - | - |
* Rain latest hour (hover to see other rain measurements)
** Current wind speed in m/s (hover to see current wind gust speed)